Hayes River, Alaska
Current Conditions -  °F | °C
As of 3:53 PM on Wednesday 22 Oct 2014 (Local Time) from PATK Reporting Station
Clear Clear  
Wind Chill: 45°   Ceiling: Unl
Heat Index: 49°   Visibility: 10mi
Dew Point: 19°   Wind: 10mph
Humidity: 31%   Direction: 20°NNE
Pressure: 29.33"   Gusts: 17mph
Location:  61.98°N, 152.08°W
Report Text: PATK 222353Z AUTO 02009G15KT 10SM CLR 09/M07 A2933 RMK AO2 SLP938 T00941072 10094 21039 53005 TSNO
Loading
Personal Weather Stations






























Interactive Weather Map
Tropical Storm Tracking
New forecast layout! Learn more

10-Day Weather Forecast

Advertisements
Track Severe Weather on mobile